createdAt,value
2023-03-18T00:01:45.107Z,100.00
2023-03-18T00:04:12.548Z,100.00
2023-03-18T00:06:38.937Z,100.00
2023-03-18T00:09:05.407Z,100.00
2023-03-18T00:11:31.760Z,100.00
2023-03-18T00:13:59.246Z,100.00
2023-03-18T00:16:27.034Z,100.00
2023-03-18T00:18:53.693Z,100.00
2023-03-18T00:21:20.285Z,100.00
2023-03-18T00:23:48.685Z,100.00
2023-03-18T00:26:15.708Z,100.00
2023-03-18T00:28:42.125Z,100.00
2023-03-18T00:31:10.779Z,100.00
2023-03-18T00:33:39.916Z,100.00
2023-03-18T00:36:09.924Z,100.00
2023-03-18T00:38:36.432Z,100.00
2023-03-18T00:41:12.133Z,100.00
2023-03-18T00:43:49.253Z,100.00
2023-03-18T00:46:17.696Z,100.00
2023-03-18T00:48:45.229Z,100.00
2023-03-18T00:51:14.018Z,100.00
2023-03-18T00:53:42.530Z,100.00
2023-03-18T00:56:09.002Z,100.00
2023-03-18T00:58:37.056Z,100.00
2023-03-18T01:01:05.848Z,100.00
2023-03-18T01:03:34.431Z,100.00
2023-03-18T01:06:02.372Z,100.00
2023-03-18T01:08:30.347Z,100.00
2023-03-18T01:10:58.016Z,100.00
2023-03-18T01:13:25.772Z,100.00
2023-03-18T01:15:53.165Z,100.00
2023-03-18T01:18:20.604Z,100.00
2023-03-18T01:20:47.065Z,100.00
2023-03-18T01:23:14.340Z,100.00
2023-03-18T01:25:44.506Z,100.00
2023-03-18T01:28:13.728Z,100.00
2023-03-18T01:30:40.861Z,100.00
2023-03-18T01:33:07.630Z,100.00
2023-03-18T01:35:35.971Z,100.00
2023-03-18T01:38:05.337Z,100.00
2023-03-18T01:40:36.978Z,100.00
2023-03-18T01:43:14.927Z,100.00
2023-03-18T01:45:47.444Z,100.00
2023-03-18T01:48:17.406Z,100.00
2023-03-18T01:50:47.515Z,100.00
2023-03-18T01:53:17.637Z,100.00
2023-03-18T01:55:45.689Z,100.00
2023-03-18T01:58:26.944Z,100.00
2023-03-18T02:01:09.509Z,100.00
2023-03-18T02:03:41.336Z,100.00
2023-03-18T02:06:08.316Z,100.00
2023-03-18T02:08:35.774Z,100.00
2023-03-18T02:11:03.222Z,100.00
2023-03-18T02:13:31.690Z,100.00
2023-03-18T02:16:05.060Z,100.00
2023-03-18T02:18:39.110Z,100.00
2023-03-18T02:21:11.528Z,100.00
2023-03-18T02:24:06.236Z,100.00
2023-03-18T02:26:54.783Z,100.00
2023-03-18T02:29:31.102Z,100.00
2023-03-18T02:32:06.949Z,100.00
2023-03-18T02:34:34.812Z,100.00
2023-03-18T02:37:01.862Z,100.00
2023-03-18T02:39:31.004Z,100.00
2023-03-18T02:41:58.410Z,100.00
2023-03-18T02:44:25.402Z,100.00
2023-03-18T02:47:22.285Z,100.00
2023-03-18T02:49:49.657Z,100.00
2023-03-18T02:52:16.160Z,100.00
2023-03-18T02:54:42.557Z,100.00
2023-03-18T02:57:09.291Z,100.00
2023-03-18T02:59:38.142Z,100.00
2023-03-18T03:02:04.882Z,100.00
2023-03-18T03:04:31.868Z,100.00
2023-03-18T03:07:01.326Z,100.00
2023-03-18T03:09:56.716Z,100.00
2023-03-18T03:12:24.538Z,100.00
2023-03-18T03:14:55.627Z,100.00
2023-03-18T03:17:22.603Z,100.00
2023-03-18T03:19:50.561Z,100.00
2023-03-18T03:22:19.927Z,100.00
2023-03-18T03:24:47.449Z,100.00
2023-03-18T03:27:14.234Z,100.00
2023-03-18T03:29:40.640Z,100.00
2023-03-18T03:32:07.037Z,100.00
2023-03-18T03:34:34.855Z,100.00
2023-03-18T03:37:01.180Z,100.00
2023-03-18T03:39:27.931Z,100.00
2023-03-18T03:41:54.262Z,100.00
2023-03-18T03:44:20.873Z,100.00
2023-03-18T03:46:49.189Z,100.00
2023-03-18T03:49:15.668Z,100.00
2023-03-18T03:51:42.376Z,100.00
2023-03-18T03:54:08.733Z,100.00
2023-03-18T03:56:35.029Z,100.00
2023-03-18T03:59:01.353Z,100.00
2023-03-18T04:01:46.192Z,100.00
2023-03-18T04:04:13.261Z,100.00
2023-03-18T04:06:39.994Z,100.00
2023-03-18T04:09:06.338Z,100.00
2023-03-18T04:11:32.662Z,100.00
2023-03-18T04:13:58.970Z,100.00
2023-03-18T04:16:26.682Z,100.00
2023-03-18T04:18:53.032Z,100.00
2023-03-18T04:21:23.175Z,100.00
2023-03-18T04:23:53.157Z,100.00
2023-03-18T04:26:20.465Z,100.00
2023-03-18T04:28:47.720Z,100.00
2023-03-18T04:31:16.638Z,100.00
2023-03-18T04:33:44.637Z,100.00
2023-03-18T04:36:11.412Z,100.00
2023-03-18T04:38:38.188Z,100.00
2023-03-18T04:41:06.649Z,100.00
2023-03-18T04:43:33.031Z,100.00
2023-03-18T04:45:59.979Z,100.00
2023-03-18T04:48:28.349Z,100.00
2023-03-18T04:50:57.096Z,100.00
2023-03-18T04:53:28.277Z,100.00
2023-03-18T04:55:55.210Z,100.00
2023-03-18T04:58:27.172Z,100.00
2023-03-18T05:01:14.058Z,100.00
2023-03-18T05:03:41.461Z,100.00
2023-03-18T05:06:09.426Z,100.00
2023-03-18T05:08:51.355Z,100.00
2023-03-18T05:11:18.742Z,100.00
2023-03-18T05:13:45.408Z,100.00
2023-03-18T05:16:13.860Z,100.00
2023-03-18T05:18:41.058Z,100.00
2023-03-18T05:21:09.994Z,100.00
2023-03-18T05:23:38.665Z,100.00
2023-03-18T05:26:05.689Z,100.00
2023-03-18T05:28:33.976Z,100.00
2023-03-18T05:31:14.757Z,100.00
2023-03-18T05:33:42.455Z,100.00
2023-03-18T05:36:10.283Z,100.00
2023-03-18T05:38:44.390Z,100.00
2023-03-18T05:41:11.233Z,100.00
2023-03-18T05:43:40.798Z,100.00
2023-03-18T05:46:07.294Z,100.00
2023-03-18T05:48:59.985Z,100.00
2023-03-18T05:51:32.157Z,100.00
2023-03-18T05:53:59.983Z,100.00
2023-03-18T05:56:31.328Z,100.00
2023-03-18T05:59:00.365Z,100.00
2023-03-18T06:01:38.776Z,100.00
2023-03-18T06:04:08.828Z,100.00
2023-03-18T06:06:39.299Z,100.00
2023-03-18T06:09:07.075Z,100.00
2023-03-18T06:11:33.846Z,100.00
2023-03-18T06:14:00.248Z,100.00
2023-03-18T06:16:28.100Z,100.00
2023-03-18T06:18:55.539Z,100.00
2023-03-18T06:21:22.692Z,100.00
2023-03-18T06:23:49.562Z,100.00
2023-03-18T06:26:15.991Z,100.00
2023-03-18T06:28:49.291Z,100.00
2023-03-18T06:31:17.542Z,100.00
2023-03-18T06:33:44.316Z,100.00
2023-03-18T06:36:16.370Z,100.00
2023-03-18T06:38:47.053Z,100.00
2023-03-18T06:41:14.595Z,100.00
2023-03-18T06:43:52.025Z,100.00
2023-03-18T06:46:18.785Z,100.00
2023-03-18T06:48:45.881Z,100.00
2023-03-18T06:51:16.423Z,100.00
2023-03-18T06:53:43.417Z,100.00
2023-03-18T06:56:13.159Z,100.00
2023-03-18T06:58:51.788Z,100.00
2023-03-18T07:01:19.366Z,100.00
2023-03-18T07:03:46.720Z,100.00
2023-03-18T07:06:13.927Z,100.00
2023-03-18T07:08:40.486Z,100.00
2023-03-18T07:11:07.349Z,100.00
2023-03-18T07:13:36.566Z,100.00
2023-03-18T07:16:06.386Z,100.00
2023-03-18T07:18:32.863Z,100.00
2023-03-18T07:20:59.613Z,100.00
2023-03-18T07:23:27.050Z,100.00
2023-03-18T07:25:57.334Z,100.00
2023-03-18T07:28:23.667Z,100.00
2023-03-18T07:30:53.019Z,100.00
2023-03-18T07:33:20.902Z,100.00
2023-03-18T07:35:48.274Z,100.00
2023-03-18T07:38:14.643Z,100.00
2023-03-18T07:40:41.162Z,100.00
2023-03-18T07:43:07.527Z,100.00
2023-03-18T07:45:34.553Z,100.00
2023-03-18T07:48:00.968Z,100.00
2023-03-18T07:50:27.836Z,100.00
2023-03-18T07:52:54.226Z,100.00
2023-03-18T07:55:20.713Z,100.00
2023-03-18T07:57:47.278Z,100.00
2023-03-18T08:00:14.250Z,100.00
2023-03-18T08:02:42.136Z,100.00
2023-03-18T08:05:09.134Z,100.00
2023-03-18T08:07:36.251Z,100.00
2023-03-18T08:10:03.284Z,100.00
2023-03-18T08:12:41.593Z,100.00
2023-03-18T08:15:17.658Z,100.00
2023-03-18T08:17:47.187Z,100.00
2023-03-18T08:20:13.807Z,100.00
2023-03-18T08:22:40.119Z,100.00
2023-03-18T08:25:07.220Z,100.00
2023-03-18T08:27:33.544Z,100.00
2023-03-18T08:30:02.971Z,100.00
2023-03-18T08:32:30.519Z,100.00
2023-03-18T08:34:56.884Z,100.00
2023-03-18T08:37:23.169Z,100.00
2023-03-18T08:39:49.476Z,100.00
2023-03-18T08:42:16.743Z,100.00
2023-03-18T08:44:43.451Z,100.00
2023-03-18T08:47:09.813Z,100.00
2023-03-18T08:49:36.924Z,100.00
2023-03-18T08:52:03.722Z,100.00
2023-03-18T08:54:30.098Z,100.00
2023-03-18T08:56:56.712Z,100.00
2023-03-18T08:59:23.098Z,100.00
2023-03-18T09:01:49.412Z,100.00
2023-03-18T09:04:15.929Z,100.00
2023-03-18T09:06:42.935Z,100.00
2023-03-18T09:09:09.497Z,100.00
2023-03-18T09:11:36.289Z,100.00
2023-03-18T09:14:02.617Z,100.00
2023-03-18T09:16:29.568Z,100.00
2023-03-18T09:18:56.061Z,100.00
2023-03-18T09:21:22.431Z,100.00
2023-03-18T09:23:50.249Z,100.00
2023-03-18T09:26:16.981Z,100.00
2023-03-18T09:28:43.358Z,100.00
2023-03-18T09:31:09.680Z,100.00
2023-03-18T09:33:37.033Z,100.00
2023-03-18T09:36:04.286Z,100.00
2023-03-18T09:38:32.321Z,100.00
2023-03-18T09:41:22.534Z,100.00
2023-03-18T09:43:58.437Z,100.00
2023-03-18T09:46:33.249Z,100.00
2023-03-18T09:49:16.540Z,100.00
2023-03-18T09:52:13.676Z,100.00
2023-03-18T09:54:57.439Z,100.00
2023-03-18T09:57:33.148Z,100.00
2023-03-18T10:00:17.374Z,100.00
2023-03-18T10:03:08.554Z,100.00
2023-03-18T10:05:43.880Z,100.00
2023-03-18T10:08:22.800Z,100.00
2023-03-18T10:10:49.196Z,100.00
2023-03-18T10:13:42.615Z,99.77
2023-03-18T10:16:15.271Z,99.64
2023-03-18T10:18:43.327Z,99.11
2023-03-18T10:21:28.255Z,99.48
2023-03-18T10:24:16.887Z,100.00
2023-03-18T10:26:50.183Z,100.00
2023-03-18T10:29:40.534Z,100.00
2023-03-18T10:32:46.513Z,100.00
2023-03-18T10:36:00.601Z,100.00
2023-03-18T10:38:34.090Z,98.89
2023-03-18T10:41:01.229Z,98.63
2023-03-18T10:43:30.863Z,98.82
2023-03-18T10:46:10.755Z,99.10
2023-03-18T10:48:46.043Z,99.18
2023-03-18T10:51:27.286Z,97.69
2023-03-18T10:53:53.839Z,94.03
2023-03-18T10:56:20.880Z,92.79
2023-03-18T10:58:47.582Z,92.75
2023-03-18T11:01:19.054Z,90.41
2023-03-18T11:03:54.455Z,89.57
2023-03-18T11:06:35.649Z,88.10
2023-03-18T11:09:12.217Z,87.74
2023-03-18T11:11:49.790Z,88.63
2023-03-18T11:14:20.860Z,87.37
2023-03-18T11:16:57.401Z,86.65
2023-03-18T11:19:30.190Z,86.13
2023-03-18T11:22:11.663Z,86.75
2023-03-18T11:24:42.135Z,87.43
2023-03-18T11:27:14.383Z,84.85
2023-03-18T11:29:46.619Z,82.71
2023-03-18T11:32:34.012Z,82.91
2023-03-18T11:35:02.456Z,84.53
2023-03-18T11:37:40.623Z,84.18
2023-03-18T11:40:18.235Z,84.42
2023-03-18T11:42:47.448Z,86.05
2023-03-18T11:45:26.439Z,83.69
2023-03-18T11:47:54.118Z,75.15
2023-03-18T11:50:25.454Z,78.34
2023-03-18T11:53:09.125Z,77.39
2023-03-18T11:55:52.694Z,78.25
2023-03-18T11:58:54.412Z,79.27
2023-03-18T12:01:35.551Z,81.05
2023-03-18T12:04:13.890Z,81.95
2023-03-18T12:06:59.650Z,83.13
2023-03-18T12:09:57.468Z,82.91
2023-03-18T12:12:59.481Z,83.19
2023-03-18T12:15:55.792Z,85.74
2023-03-18T12:19:13.197Z,86.36
2023-03-18T12:21:54.959Z,84.17
2023-03-18T12:24:39.378Z,85.36
2023-03-18T12:27:20.151Z,86.56
2023-03-18T12:30:14.328Z,85.23
2023-03-18T12:33:10.519Z,84.80
2023-03-18T12:36:00.417Z,85.59
2023-03-18T12:38:41.866Z,86.40
2023-03-18T12:41:21.412Z,85.22
2023-03-18T12:44:07.768Z,84.40
2023-03-18T12:47:01.339Z,81.55
2023-03-18T12:49:41.473Z,81.45
2023-03-18T12:52:44.977Z,79.39
2023-03-18T12:55:21.631Z,80.44
2023-03-18T12:58:07.447Z,81.52
2023-03-18T13:00:54.188Z,81.33
2023-03-18T13:03:31.289Z,79.11
2023-03-18T13:06:29.099Z,77.10
2023-03-18T13:09:06.186Z,76.64
2023-03-18T13:11:53.663Z,77.34
2023-03-18T13:14:58.200Z,75.42
2023-03-18T13:17:30.445Z,72.13
2023-03-18T13:20:01.730Z,68.46
2023-03-18T13:22:43.301Z,67.49
2023-03-18T13:25:28.914Z,69.61
2023-03-18T13:28:11.296Z,71.00
2023-03-18T13:30:54.141Z,73.10
2023-03-18T13:33:45.393Z,74.23
2023-03-18T13:36:17.418Z,75.16
2023-03-18T13:39:04.547Z,74.73
2023-03-18T13:42:04.860Z,75.96
2023-03-18T13:44:43.806Z,75.08
2023-03-18T13:47:19.405Z,76.29
2023-03-18T13:49:46.665Z,78.03
2023-03-18T13:52:44.913Z,79.44
2023-03-18T13:55:29.310Z,79.09
2023-03-18T13:58:09.119Z,76.22
2023-03-18T14:00:40.311Z,77.61
2023-03-18T14:03:27.210Z,76.78
2023-03-18T14:06:08.650Z,73.93
2023-03-18T14:08:38.122Z,71.75
2023-03-18T14:11:16.633Z,70.87
2023-03-18T14:13:44.793Z,73.29
2023-03-18T14:16:14.792Z,72.43
2023-03-18T14:18:41.299Z,72.04
2023-03-18T14:21:23.680Z,72.01
2023-03-18T14:24:17.502Z,72.21
2023-03-18T14:26:49.215Z,72.13
2023-03-18T14:29:24.782Z,72.07
2023-03-18T14:32:00.364Z,71.15
2023-03-18T14:34:34.101Z,71.21
2023-03-18T14:37:20.266Z,71.79
2023-03-18T14:39:52.534Z,72.49
2023-03-18T14:42:29.174Z,72.98
2023-03-18T14:45:04.332Z,72.01
2023-03-18T14:47:41.714Z,72.61
2023-03-18T14:50:32.672Z,73.77
2023-03-18T14:53:09.882Z,73.43
2023-03-18T14:55:37.876Z,73.06
2023-03-18T14:58:04.721Z,73.25
2023-03-18T15:00:35.337Z,72.24
2023-03-18T15:03:09.139Z,72.23
2023-03-18T15:05:38.950Z,72.74
2023-03-18T15:08:19.518Z,72.94
2023-03-18T15:10:51.448Z,73.33
2023-03-18T15:13:20.280Z,74.42
2023-03-18T15:15:47.030Z,74.28
2023-03-18T15:18:20.525Z,72.47
2023-03-18T15:20:51.450Z,70.78
2023-03-18T15:23:26.879Z,70.99
2023-03-18T15:25:53.954Z,71.64
2023-03-18T15:28:23.557Z,70.76
2023-03-18T15:30:54.154Z,70.75
2023-03-18T15:33:23.508Z,70.72
2023-03-18T15:36:16.441Z,71.20
2023-03-18T15:38:50.402Z,72.47
2023-03-18T15:41:21.453Z,72.74
2023-03-18T15:43:48.992Z,73.26
2023-03-18T15:46:27.139Z,74.32
2023-03-18T15:48:55.732Z,73.07
2023-03-18T15:51:42.044Z,71.47
2023-03-18T15:54:17.918Z,72.50
2023-03-18T15:56:47.146Z,70.78
2023-03-18T15:59:39.911Z,71.33
2023-03-18T16:02:12.607Z,71.36
2023-03-18T16:04:38.941Z,71.85
2023-03-18T16:07:16.085Z,73.13
2023-03-18T16:09:42.423Z,73.43
2023-03-18T16:12:16.713Z,73.02
2023-03-18T16:14:45.842Z,70.79
2023-03-18T16:17:13.053Z,71.12
2023-03-18T16:19:39.832Z,71.41
2023-03-18T16:22:06.266Z,71.95
2023-03-18T16:24:32.606Z,73.26
2023-03-18T16:26:59.245Z,73.57
2023-03-18T16:29:31.799Z,72.49
2023-03-18T16:31:58.946Z,71.89
2023-03-18T16:34:25.799Z,71.81
2023-03-18T16:36:53.392Z,72.09
2023-03-18T16:39:24.220Z,71.23
2023-03-18T16:41:51.034Z,72.15
2023-03-18T16:44:23.519Z,72.30
2023-03-18T16:46:53.621Z,72.13
2023-03-18T16:49:24.898Z,72.89
2023-03-18T16:51:51.661Z,74.36
2023-03-18T16:54:34.320Z,74.60
2023-03-18T16:57:04.241Z,75.29
2023-03-18T16:59:33.808Z,77.24
2023-03-18T17:02:00.815Z,78.13
2023-03-18T17:04:32.981Z,79.17
2023-03-18T17:07:01.710Z,80.74
2023-03-18T17:09:28.148Z,82.91
2023-03-18T17:12:00.829Z,84.37
2023-03-18T17:14:31.764Z,84.03
2023-03-18T17:17:01.317Z,85.04
2023-03-18T17:19:28.357Z,85.70
2023-03-18T17:21:55.373Z,87.63
2023-03-18T17:24:22.793Z,88.01
2023-03-18T17:26:51.434Z,88.46
2023-03-18T17:29:27.154Z,88.69
2023-03-18T17:31:54.631Z,88.53
2023-03-18T17:34:21.249Z,89.42
2023-03-18T17:36:48.351Z,89.19
2023-03-18T17:39:15.027Z,90.82
2023-03-18T17:41:41.806Z,91.05
2023-03-18T17:44:30.124Z,90.51
2023-03-18T17:46:57.450Z,91.21
2023-03-18T17:49:26.910Z,91.01
2023-03-18T17:51:55.373Z,91.94
2023-03-18T17:54:25.152Z,91.83
2023-03-18T17:56:52.732Z,92.10
2023-03-18T17:59:20.261Z,91.33
2023-03-18T18:01:49.324Z,91.78
2023-03-18T18:04:18.431Z,90.58
2023-03-18T18:06:47.929Z,90.93
2023-03-18T18:09:15.291Z,91.10
2023-03-18T18:11:48.399Z,91.75
2023-03-18T18:14:24.994Z,91.45
2023-03-18T18:16:53.615Z,91.36
2023-03-18T18:19:19.988Z,91.67
2023-03-18T18:21:47.053Z,91.08
2023-03-18T18:24:18.605Z,91.91
2023-03-18T18:26:44.939Z,92.66
2023-03-18T18:29:19.318Z,92.95
2023-03-18T18:31:45.828Z,93.10
2023-03-18T18:34:13.071Z,92.31
2023-03-18T18:36:39.734Z,92.41
2023-03-18T18:39:06.289Z,92.53
2023-03-18T18:41:33.468Z,92.05
2023-03-18T18:43:59.870Z,92.49
2023-03-18T18:46:28.716Z,93.47
2023-03-18T18:48:55.165Z,93.21
2023-03-18T18:51:23.252Z,93.64
2023-03-18T18:53:52.309Z,93.54
2023-03-18T18:56:23.450Z,93.41
2023-03-18T18:58:50.625Z,94.72
2023-03-18T19:01:18.304Z,93.22
2023-03-18T19:03:45.142Z,93.31
2023-03-18T19:06:31.928Z,93.35
2023-03-18T19:09:00.672Z,93.66
2023-03-18T19:11:28.086Z,93.52
2023-03-18T19:14:09.230Z,93.20
2023-03-18T19:16:35.766Z,92.72
2023-03-18T19:19:02.872Z,94.01
2023-03-18T19:21:29.194Z,93.41
2023-03-18T19:23:55.531Z,92.75
2023-03-18T19:26:21.908Z,93.27
2023-03-18T19:28:57.516Z,94.73
2023-03-18T19:31:26.972Z,93.74
2023-03-18T19:33:53.849Z,93.91
2023-03-18T19:36:26.903Z,93.36
2023-03-18T19:38:55.177Z,95.72
2023-03-18T19:41:21.853Z,94.61
2023-03-18T19:43:48.690Z,93.79
2023-03-18T19:46:38.423Z,93.68
2023-03-18T19:49:22.437Z,93.50
2023-03-18T19:51:50.068Z,93.95
2023-03-18T19:54:33.894Z,93.63
2023-03-18T19:57:17.185Z,94.92
2023-03-18T19:59:46.767Z,96.43
2023-03-18T20:02:19.904Z,95.66
2023-03-18T20:04:47.726Z,94.21
2023-03-18T20:07:14.124Z,95.60
2023-03-18T20:09:40.455Z,94.65
2023-03-18T20:12:18.931Z,95.34
2023-03-18T20:14:45.547Z,94.35
2023-03-18T20:17:35.796Z,94.09
2023-03-18T20:20:02.173Z,95.06
2023-03-18T20:22:35.610Z,94.72
2023-03-18T20:25:04.872Z,94.93
2023-03-18T20:27:31.644Z,96.19
2023-03-18T20:29:58.153Z,95.56
2023-03-18T20:32:24.739Z,95.80
2023-03-18T20:34:51.241Z,94.82
2023-03-18T20:37:34.900Z,94.84
2023-03-18T20:40:07.267Z,95.23
2023-03-18T20:42:33.671Z,94.39
2023-03-18T20:45:00.308Z,94.42
2023-03-18T20:47:26.642Z,94.84
2023-03-18T20:49:54.716Z,94.51
2023-03-18T20:52:26.515Z,94.33
2023-03-18T20:54:54.175Z,96.80
2023-03-18T20:57:20.809Z,95.94
2023-03-18T20:59:47.330Z,95.43
2023-03-18T21:02:28.079Z,95.83
2023-03-18T21:04:56.007Z,96.28
2023-03-18T21:07:22.824Z,97.10
2023-03-18T21:09:49.172Z,96.06
2023-03-18T21:12:20.542Z,96.84
2023-03-18T21:14:47.412Z,96.79
2023-03-18T21:17:20.835Z,96.78
2023-03-18T21:19:48.448Z,96.66
2023-03-18T21:22:24.722Z,96.84
2023-03-18T21:24:51.083Z,98.05
2023-03-18T21:27:22.174Z,99.40
2023-03-18T21:29:50.902Z,98.63
2023-03-18T21:32:31.519Z,98.10
2023-03-18T21:34:58.289Z,98.35
2023-03-18T21:37:27.079Z,99.16
2023-03-18T21:39:53.708Z,99.83
2023-03-18T21:42:24.877Z,99.64
2023-03-18T21:44:51.387Z,99.71
2023-03-18T21:47:20.055Z,98.97
2023-03-18T21:49:46.956Z,98.76
2023-03-18T21:52:28.915Z,98.54
2023-03-18T21:54:55.861Z,99.13
2023-03-18T21:57:23.781Z,98.71
2023-03-18T21:59:52.063Z,99.58
2023-03-18T22:02:27.384Z,100.00
2023-03-18T22:04:58.346Z,100.00
2023-03-18T22:07:29.722Z,100.00
2023-03-18T22:09:57.048Z,100.00
2023-03-18T22:12:28.892Z,100.00
2023-03-18T22:14:56.069Z,100.00
2023-03-18T22:17:34.141Z,100.00
2023-03-18T22:20:01.673Z,100.00
2023-03-18T22:22:47.347Z,100.00
2023-03-18T22:25:28.215Z,100.00
2023-03-18T22:27:54.571Z,100.00
2023-03-18T22:30:21.406Z,100.00
2023-03-18T22:32:48.210Z,100.00
2023-03-18T22:35:21.073Z,100.00
2023-03-18T22:37:48.485Z,100.00
2023-03-18T22:40:21.565Z,100.00
2023-03-18T22:42:49.282Z,100.00
2023-03-18T22:45:33.446Z,100.00
2023-03-18T22:48:04.160Z,100.00
2023-03-18T22:50:32.241Z,100.00
2023-03-18T22:53:04.648Z,100.00
2023-03-18T22:55:35.667Z,100.00
2023-03-18T22:58:02.636Z,100.00
2023-03-18T23:00:43.738Z,100.00
2023-03-18T23:03:19.852Z,100.00
2023-03-18T23:05:47.973Z,100.00
2023-03-18T23:08:14.928Z,100.00
2023-03-18T23:10:42.643Z,100.00
2023-03-18T23:13:18.401Z,100.00
2023-03-18T23:15:45.454Z,100.00
2023-03-18T23:18:16.046Z,100.00
2023-03-18T23:20:48.651Z,100.00
2023-03-18T23:23:16.112Z,100.00
2023-03-18T23:25:44.056Z,100.00
2023-03-18T23:28:11.081Z,100.00
2023-03-18T23:30:39.982Z,100.00
2023-03-18T23:33:07.212Z,100.00
2023-03-18T23:35:33.847Z,100.00
2023-03-18T23:38:00.514Z,100.00
2023-03-18T23:40:27.197Z,100.00
2023-03-18T23:42:53.540Z,100.00
2023-03-18T23:45:20.018Z,100.00
2023-03-18T23:47:46.586Z,100.00
2023-03-18T23:50:13.232Z,100.00
2023-03-18T23:52:39.582Z,100.00
2023-03-18T23:55:21.368Z,100.00
2023-03-18T23:57:53.524Z,100.00
